sensor_id;sensor_type;location;lat;lon;timestamp;P1;durP1;ratioP1;P2;durP2;ratioP2
10550;SDS011;5324;50.684;3.862;2024-02-16T00:00:04;3.13;;;2.87;;
10550;SDS011;5324;50.684;3.862;2024-02-16T00:02:30;3.40;;;2.60;;
10550;SDS011;5324;50.684;3.862;2024-02-16T00:04:57;3.93;;;2.83;;
10550;SDS011;5324;50.684;3.862;2024-02-16T00:07:24;2.67;;;2.40;;
10550;SDS011;5324;50.684;3.862;2024-02-16T00:09:50;4.40;;;2.30;;
10550;SDS011;5324;50.684;3.862;2024-02-16T00:12:16;3.50;;;2.97;;
10550;SDS011;5324;50.684;3.862;2024-02-16T00:14:42;3.40;;;3.10;;
10550;SDS011;5324;50.684;3.862;2024-02-16T00:17:11;4.40;;;3.30;;
10550;SDS011;5324;50.684;3.862;2024-02-16T00:19:37;4.17;;;3.17;;
10550;SDS011;5324;50.684;3.862;2024-02-16T00:22:03;4.23;;;3.20;;
10550;SDS011;5324;50.684;3.862;2024-02-16T00:24:29;5.93;;;2.70;;
10550;SDS011;5324;50.684;3.862;2024-02-16T00:26:56;3.70;;;2.97;;
10550;SDS011;5324;50.684;3.862;2024-02-16T00:29:22;3.37;;;2.80;;
10550;SDS011;5324;50.684;3.862;2024-02-16T00:31:49;3.10;;;2.70;;
10550;SDS011;5324;50.684;3.862;2024-02-16T00:34:15;5.17;;;3.50;;
10550;SDS011;5324;50.684;3.862;2024-02-16T00:36:41;4.23;;;2.93;;
10550;SDS011;5324;50.684;3.862;2024-02-16T00:39:07;3.20;;;2.90;;
10550;SDS011;5324;50.684;3.862;2024-02-16T00:41:33;4.73;;;3.10;;
10550;SDS011;5324;50.684;3.862;2024-02-16T00:43:59;3.83;;;3.27;;
10550;SDS011;5324;50.684;3.862;2024-02-16T00:46:25;3.73;;;3.17;;
10550;SDS011;5324;50.684;3.862;2024-02-16T00:48:54;3.57;;;3.00;;
10550;SDS011;5324;50.684;3.862;2024-02-16T00:51:20;4.40;;;3.30;;
10550;SDS011;5324;50.684;3.862;2024-02-16T00:53:48;4.67;;;2.60;;
10550;SDS011;5324;50.684;3.862;2024-02-16T00:56:14;3.43;;;3.00;;
10550;SDS011;5324;50.684;3.862;2024-02-16T00:58:40;3.30;;;3.00;;
10550;SDS011;5324;50.684;3.862;2024-02-16T01:01:10;4.10;;;2.90;;
10550;SDS011;5324;50.684;3.862;2024-02-16T01:03:37;3.83;;;3.10;;
10550;SDS011;5324;50.684;3.862;2024-02-16T01:06:04;4.33;;;3.17;;
10550;SDS011;5324;50.684;3.862;2024-02-16T01:08:30;4.53;;;3.00;;
10550;SDS011;5324;50.684;3.862;2024-02-16T01:10:56;3.20;;;2.90;;
10550;SDS011;5324;50.684;3.862;2024-02-16T01:13:22;3.73;;;2.90;;
10550;SDS011;5324;50.684;3.862;2024-02-16T01:15:48;5.30;;;3.30;;
10550;SDS011;5324;50.684;3.862;2024-02-16T01:18:14;3.53;;;2.80;;
10550;SDS011;5324;50.684;3.862;2024-02-16T01:20:40;5.30;;;3.27;;
10550;SDS011;5324;50.684;3.862;2024-02-16T01:23:06;3.87;;;3.07;;
10550;SDS011;5324;50.684;3.862;2024-02-16T01:25:32;3.93;;;3.10;;
10550;SDS011;5324;50.684;3.862;2024-02-16T01:27:58;4.57;;;2.83;;
10550;SDS011;5324;50.684;3.862;2024-02-16T01:30:24;5.00;;;2.90;;
10550;SDS011;5324;50.684;3.862;2024-02-16T01:32:50;3.87;;;3.03;;
10550;SDS011;5324;50.684;3.862;2024-02-16T01:35:17;3.50;;;3.20;;
10550;SDS011;5324;50.684;3.862;2024-02-16T01:37:43;3.70;;;3.00;;
10550;SDS011;5324;50.684;3.862;2024-02-16T01:40:09;5.50;;;3.33;;
10550;SDS011;5324;50.684;3.862;2024-02-16T01:42:42;3.33;;;2.87;;
10550;SDS011;5324;50.684;3.862;2024-02-16T01:45:09;5.07;;;2.97;;
10550;SDS011;5324;50.684;3.862;2024-02-16T01:47:36;4.37;;;3.17;;
10550;SDS011;5324;50.684;3.862;2024-02-16T01:50:02;4.20;;;3.30;;
10550;SDS011;5324;50.684;3.862;2024-02-16T01:52:29;4.20;;;2.97;;
10550;SDS011;5324;50.684;3.862;2024-02-16T01:54:56;3.50;;;2.70;;
10550;SDS011;5324;50.684;3.862;2024-02-16T01:57:22;4.37;;;2.90;;
10550;SDS011;5324;50.684;3.862;2024-02-16T01:59:48;3.63;;;3.17;;
10550;SDS011;5324;50.684;3.862;2024-02-16T02:02:15;3.87;;;3.10;;
10550;SDS011;5324;50.684;3.862;2024-02-16T02:04:41;5.00;;;3.20;;
10550;SDS011;5324;50.684;3.862;2024-02-16T02:07:12;5.07;;;3.40;;
10550;SDS011;5324;50.684;3.862;2024-02-16T02:09:38;4.50;;;3.40;;
10550;SDS011;5324;50.684;3.862;2024-02-16T02:12:04;4.53;;;3.10;;
10550;SDS011;5324;50.684;3.862;2024-02-16T02:14:30;3.23;;;2.90;;
10550;SDS011;5324;50.684;3.862;2024-02-16T02:16:56;3.70;;;3.27;;
10550;SDS011;5324;50.684;3.862;2024-02-16T02:19:22;4.10;;;2.97;;
10550;SDS011;5324;50.684;3.862;2024-02-16T02:21:48;6.10;;;3.47;;
10550;SDS011;5324;50.684;3.862;2024-02-16T02:24:15;6.97;;;3.60;;
10550;SDS011;5324;50.684;3.862;2024-02-16T02:26:41;3.70;;;3.37;;
10550;SDS011;5324;50.684;3.862;2024-02-16T02:29:07;3.67;;;3.37;;
10550;SDS011;5324;50.684;3.862;2024-02-16T02:31:34;5.33;;;3.00;;
10550;SDS011;5324;50.684;3.862;2024-02-16T02:34:00;4.00;;;3.13;;
10550;SDS011;5324;50.684;3.862;2024-02-16T02:36:26;5.90;;;3.27;;
10550;SDS011;5324;50.684;3.862;2024-02-16T02:38:52;3.57;;;2.90;;
10550;SDS011;5324;50.684;3.862;2024-02-16T02:41:18;4.30;;;3.07;;
10550;SDS011;5324;50.684;3.862;2024-02-16T02:43:45;4.50;;;3.30;;
10550;SDS011;5324;50.684;3.862;2024-02-16T02:46:14;5.00;;;3.53;;
10550;SDS011;5324;50.684;3.862;2024-02-16T02:48:45;3.93;;;3.37;;
10550;SDS011;5324;50.684;3.862;2024-02-16T02:51:11;3.73;;;2.73;;
10550;SDS011;5324;50.684;3.862;2024-02-16T02:53:37;4.10;;;3.30;;
10550;SDS011;5324;50.684;3.862;2024-02-16T02:56:03;4.43;;;3.00;;
10550;SDS011;5324;50.684;3.862;2024-02-16T02:58:30;4.20;;;3.27;;
10550;SDS011;5324;50.684;3.862;2024-02-16T03:00:56;4.83;;;2.93;;
10550;SDS011;5324;50.684;3.862;2024-02-16T03:03:22;4.23;;;3.10;;
10550;SDS011;5324;50.684;3.862;2024-02-16T03:05:49;4.83;;;3.27;;
10550;SDS011;5324;50.684;3.862;2024-02-16T03:08:17;5.10;;;3.57;;
10550;SDS011;5324;50.684;3.862;2024-02-16T03:10:43;4.13;;;3.47;;
10550;SDS011;5324;50.684;3.862;2024-02-16T03:13:09;7.10;;;2.83;;
10550;SDS011;5324;50.684;3.862;2024-02-16T03:15:38;4.37;;;3.67;;
10550;SDS011;5324;50.684;3.862;2024-02-16T03:18:04;4.73;;;3.37;;
10550;SDS011;5324;50.684;3.862;2024-02-16T03:20:33;3.00;;;2.73;;
10550;SDS011;5324;50.684;3.862;2024-02-16T03:22:59;4.63;;;3.10;;
10550;SDS011;5324;50.684;3.862;2024-02-16T03:25:25;3.67;;;3.27;;
10550;SDS011;5324;50.684;3.862;2024-02-16T03:27:51;4.10;;;3.43;;
10550;SDS011;5324;50.684;3.862;2024-02-16T03:30:21;4.50;;;3.30;;
10550;SDS011;5324;50.684;3.862;2024-02-16T03:32:50;4.53;;;3.40;;
10550;SDS011;5324;50.684;3.862;2024-02-16T03:35:17;4.70;;;3.33;;
10550;SDS011;5324;50.684;3.862;2024-02-16T03:37:44;5.43;;;3.00;;
10550;SDS011;5324;50.684;3.862;2024-02-16T03:40:10;5.40;;;3.10;;
10550;SDS011;5324;50.684;3.862;2024-02-16T03:42:37;4.30;;;2.97;;
10550;SDS011;5324;50.684;3.862;2024-02-16T03:45:03;4.93;;;3.23;;
10550;SDS011;5324;50.684;3.862;2024-02-16T03:47:30;4.40;;;3.40;;
10550;SDS011;5324;50.684;3.862;2024-02-16T03:49:56;5.03;;;3.20;;
10550;SDS011;5324;50.684;3.862;2024-02-16T03:52:21;3.37;;;3.07;;
10550;SDS011;5324;50.684;3.862;2024-02-16T03:54:47;5.27;;;3.23;;
10550;SDS011;5324;50.684;3.862;2024-02-16T03:57:14;5.90;;;3.40;;
10550;SDS011;5324;50.684;3.862;2024-02-16T03:59:42;3.53;;;3.03;;
10550;SDS011;5324;50.684;3.862;2024-02-16T04:02:08;4.43;;;3.40;;
10550;SDS011;5324;50.684;3.862;2024-02-16T04:04:35;3.63;;;2.90;;
10550;SDS011;5324;50.684;3.862;2024-02-16T04:07:01;3.70;;;3.10;;
10550;SDS011;5324;50.684;3.862;2024-02-16T04:09:27;3.80;;;2.97;;
10550;SDS011;5324;50.684;3.862;2024-02-16T04:11:53;3.90;;;3.23;;
10550;SDS011;5324;50.684;3.862;2024-02-16T04:14:19;2.90;;;2.60;;
10550;SDS011;5324;50.684;3.862;2024-02-16T04:16:45;4.70;;;3.27;;
10550;SDS011;5324;50.684;3.862;2024-02-16T04:19:11;4.23;;;3.40;;
10550;SDS011;5324;50.684;3.862;2024-02-16T04:21:37;3.53;;;2.90;;
10550;SDS011;5324;50.684;3.862;2024-02-16T04:24:03;5.97;;;3.23;;
10550;SDS011;5324;50.684;3.862;2024-02-16T04:26:29;5.37;;;3.03;;
10550;SDS011;5324;50.684;3.862;2024-02-16T04:28:55;4.53;;;2.93;;
10550;SDS011;5324;50.684;3.862;2024-02-16T04:31:21;4.47;;;3.37;;
10550;SDS011;5324;50.684;3.862;2024-02-16T04:33:47;6.37;;;3.70;;
10550;SDS011;5324;50.684;3.862;2024-02-16T04:36:13;4.90;;;3.70;;
10550;SDS011;5324;50.684;3.862;2024-02-16T04:38:40;5.20;;;3.27;;
10550;SDS011;5324;50.684;3.862;2024-02-16T04:41:06;3.90;;;3.40;;
10550;SDS011;5324;50.684;3.862;2024-02-16T04:43:33;4.83;;;3.27;;
10550;SDS011;5324;50.684;3.862;2024-02-16T04:46:00;4.40;;;3.53;;
10550;SDS011;5324;50.684;3.862;2024-02-16T04:48:26;5.40;;;3.30;;
10550;SDS011;5324;50.684;3.862;2024-02-16T04:50:52;3.90;;;2.93;;
10550;SDS011;5324;50.684;3.862;2024-02-16T04:53:18;4.00;;;3.03;;
10550;SDS011;5324;50.684;3.862;2024-02-16T04:55:44;5.40;;;3.30;;
10550;SDS011;5324;50.684;3.862;2024-02-16T04:58:10;5.47;;;3.73;;
10550;SDS011;5324;50.684;3.862;2024-02-16T05:00:37;5.30;;;3.60;;
10550;SDS011;5324;50.684;3.862;2024-02-16T05:03:03;3.87;;;3.23;;
10550;SDS011;5324;50.684;3.862;2024-02-16T05:05:29;3.10;;;2.80;;
10550;SDS011;5324;50.684;3.862;2024-02-16T05:07:58;3.67;;;3.33;;
10550;SDS011;5324;50.684;3.862;2024-02-16T05:10:25;5.37;;;3.20;;
10550;SDS011;5324;50.684;3.862;2024-02-16T05:12:51;4.67;;;3.30;;
10550;SDS011;5324;50.684;3.862;2024-02-16T05:15:17;3.83;;;3.20;;
10550;SDS011;5324;50.684;3.862;2024-02-16T05:17:46;4.00;;;3.03;;
10550;SDS011;5324;50.684;3.862;2024-02-16T05:20:14;3.57;;;2.93;;
10550;SDS011;5324;50.684;3.862;2024-02-16T05:22:43;4.03;;;2.70;;
10550;SDS011;5324;50.684;3.862;2024-02-16T05:25:10;3.63;;;3.03;;
10550;SDS011;5324;50.684;3.862;2024-02-16T05:27:36;5.50;;;3.17;;
10550;SDS011;5324;50.684;3.862;2024-02-16T05:30:03;3.60;;;2.70;;
10550;SDS011;5324;50.684;3.862;2024-02-16T05:32:32;4.87;;;2.80;;
10550;SDS011;5324;50.684;3.862;2024-02-16T05:34:58;4.77;;;3.13;;
10550;SDS011;5324;50.684;3.862;2024-02-16T05:37:25;6.67;;;2.67;;
10550;SDS011;5324;50.684;3.862;2024-02-16T05:39:51;3.77;;;2.97;;
10550;SDS011;5324;50.684;3.862;2024-02-16T05:42:32;3.83;;;3.00;;
10550;SDS011;5324;50.684;3.862;2024-02-16T05:44:58;3.30;;;2.73;;
10550;SDS011;5324;50.684;3.862;2024-02-16T05:47:24;4.73;;;3.13;;
10550;SDS011;5324;50.684;3.862;2024-02-16T05:49:51;4.63;;;2.87;;
10550;SDS011;5324;50.684;3.862;2024-02-16T05:52:17;5.60;;;3.03;;
10550;SDS011;5324;50.684;3.862;2024-02-16T05:54:46;4.90;;;3.13;;
10550;SDS011;5324;50.684;3.862;2024-02-16T05:57:13;4.43;;;2.50;;
10550;SDS011;5324;50.684;3.862;2024-02-16T05:59:39;3.87;;;3.10;;
10550;SDS011;5324;50.684;3.862;2024-02-16T06:02:06;6.97;;;2.90;;
10550;SDS011;5324;50.684;3.862;2024-02-16T06:04:34;3.47;;;3.10;;
10550;SDS011;5324;50.684;3.862;2024-02-16T06:07:00;3.67;;;2.90;;
10550;SDS011;5324;50.684;3.862;2024-02-16T06:09:26;4.87;;;3.00;;
10550;SDS011;5324;50.684;3.862;2024-02-16T06:11:59;4.27;;;2.70;;
10550;SDS011;5324;50.684;3.862;2024-02-16T06:14:26;4.13;;;3.07;;
10550;SDS011;5324;50.684;3.862;2024-02-16T06:16:52;3.23;;;2.80;;
10550;SDS011;5324;50.684;3.862;2024-02-16T06:19:18;3.80;;;2.93;;
10550;SDS011;5324;50.684;3.862;2024-02-16T06:21:44;6.90;;;2.97;;
10550;SDS011;5324;50.684;3.862;2024-02-16T06:24:10;3.57;;;2.90;;
10550;SDS011;5324;50.684;3.862;2024-02-16T06:26:36;3.97;;;3.20;;
10550;SDS011;5324;50.684;3.862;2024-02-16T06:29:02;4.10;;;2.93;;
10550;SDS011;5324;50.684;3.862;2024-02-16T06:31:28;3.03;;;2.73;;
10550;SDS011;5324;50.684;3.862;2024-02-16T06:33:54;4.80;;;3.10;;
10550;SDS011;5324;50.684;3.862;2024-02-16T06:36:20;4.33;;;2.97;;
10550;SDS011;5324;50.684;3.862;2024-02-16T06:38:46;3.37;;;2.80;;
10550;SDS011;5324;50.684;3.862;2024-02-16T06:41:12;4.80;;;3.13;;
10550;SDS011;5324;50.684;3.862;2024-02-16T06:43:38;5.17;;;3.33;;
10550;SDS011;5324;50.684;3.862;2024-02-16T06:46:04;5.67;;;3.10;;
10550;SDS011;5324;50.684;3.862;2024-02-16T06:48:30;4.23;;;3.10;;
10550;SDS011;5324;50.684;3.862;2024-02-16T06:50:56;4.13;;;2.93;;
10550;SDS011;5324;50.684;3.862;2024-02-16T06:53:22;4.03;;;3.40;;
10550;SDS011;5324;50.684;3.862;2024-02-16T06:55:48;4.47;;;3.13;;
10550;SDS011;5324;50.684;3.862;2024-02-16T06:58:15;3.23;;;2.93;;
10550;SDS011;5324;50.684;3.862;2024-02-16T07:00:41;5.33;;;3.03;;
10550;SDS011;5324;50.684;3.862;2024-02-16T07:03:07;3.67;;;3.23;;
10550;SDS011;5324;50.684;3.862;2024-02-16T07:05:34;4.70;;;3.50;;
10550;SDS011;5324;50.684;3.862;2024-02-16T07:08:00;4.03;;;3.20;;
10550;SDS011;5324;50.684;3.862;2024-02-16T07:10:26;5.90;;;3.40;;
10550;SDS011;5324;50.684;3.862;2024-02-16T07:12:52;3.77;;;3.30;;
10550;SDS011;5324;50.684;3.862;2024-02-16T07:15:18;3.23;;;2.90;;
10550;SDS011;5324;50.684;3.862;2024-02-16T07:17:44;8.83;;;3.70;;
10550;SDS011;5324;50.684;3.862;2024-02-16T07:20:11;5.27;;;3.23;;
10550;SDS011;5324;50.684;3.862;2024-02-16T07:22:40;4.47;;;3.33;;
10550;SDS011;5324;50.684;3.862;2024-02-16T07:25:07;5.93;;;3.23;;
10550;SDS011;5324;50.684;3.862;2024-02-16T07:27:33;6.63;;;3.87;;
10550;SDS011;5324;50.684;3.862;2024-02-16T07:29:59;3.70;;;2.70;;
10550;SDS011;5324;50.684;3.862;2024-02-16T07:32:25;5.90;;;3.50;;
10550;SDS011;5324;50.684;3.862;2024-02-16T07:34:51;4.37;;;3.33;;
10550;SDS011;5324;50.684;3.862;2024-02-16T07:37:17;5.07;;;3.40;;
10550;SDS011;5324;50.684;3.862;2024-02-16T07:39:43;4.80;;;3.20;;
10550;SDS011;5324;50.684;3.862;2024-02-16T07:42:09;4.53;;;3.40;;
10550;SDS011;5324;50.684;3.862;2024-02-16T07:44:37;5.00;;;3.43;;
10550;SDS011;5324;50.684;3.862;2024-02-16T07:47:03;4.23;;;3.30;;
10550;SDS011;5324;50.684;3.862;2024-02-16T07:49:30;3.47;;;3.17;;
10550;SDS011;5324;50.684;3.862;2024-02-16T07:51:56;5.43;;;2.97;;
10550;SDS011;5324;50.684;3.862;2024-02-16T07:54:22;6.07;;;3.30;;
10550;SDS011;5324;50.684;3.862;2024-02-16T07:56:48;3.87;;;3.23;;
10550;SDS011;5324;50.684;3.862;2024-02-16T07:59:15;5.73;;;3.13;;
10550;SDS011;5324;50.684;3.862;2024-02-16T08:01:41;5.63;;;3.27;;
10550;SDS011;5324;50.684;3.862;2024-02-16T08:04:09;4.80;;;3.23;;
10550;SDS011;5324;50.684;3.862;2024-02-16T08:06:35;4.60;;;3.13;;
10550;SDS011;5324;50.684;3.862;2024-02-16T08:09:01;5.10;;;3.40;;
10550;SDS011;5324;50.684;3.862;2024-02-16T08:11:27;5.63;;;3.40;;
10550;SDS011;5324;50.684;3.862;2024-02-16T08:13:53;6.30;;;2.90;;
10550;SDS011;5324;50.684;3.862;2024-02-16T08:16:20;8.50;;;3.30;;
10550;SDS011;5324;50.684;3.862;2024-02-16T08:18:46;4.23;;;3.20;;
10550;SDS011;5324;50.684;3.862;2024-02-16T08:21:12;4.00;;;3.20;;
10550;SDS011;5324;50.684;3.862;2024-02-16T08:23:38;6.30;;;3.40;;
10550;SDS011;5324;50.684;3.862;2024-02-16T08:26:04;7.80;;;3.20;;
10550;SDS011;5324;50.684;3.862;2024-02-16T08:28:30;8.70;;;3.67;;
10550;SDS011;5324;50.684;3.862;2024-02-16T08:30:56;7.03;;;4.00;;
10550;SDS011;5324;50.684;3.862;2024-02-16T08:33:22;5.23;;;3.37;;
10550;SDS011;5324;50.684;3.862;2024-02-16T08:35:48;4.33;;;3.27;;
10550;SDS011;5324;50.684;3.862;2024-02-16T08:38:15;8.23;;;3.60;;
10550;SDS011;5324;50.684;3.862;2024-02-16T08:40:41;5.77;;;3.40;;
10550;SDS011;5324;50.684;3.862;2024-02-16T08:43:07;4.10;;;3.13;;
10550;SDS011;5324;50.684;3.862;2024-02-16T08:45:34;7.23;;;4.00;;
10550;SDS011;5324;50.684;3.862;2024-02-16T08:48:00;3.60;;;3.20;;
10550;SDS011;5324;50.684;3.862;2024-02-16T08:50:28;5.87;;;3.63;;
10550;SDS011;5324;50.684;3.862;2024-02-16T08:52:55;5.73;;;3.43;;
10550;SDS011;5324;50.684;3.862;2024-02-16T08:55:21;4.80;;;3.60;;
10550;SDS011;5324;50.684;3.862;2024-02-16T08:57:47;5.33;;;3.60;;
10550;SDS011;5324;50.684;3.862;2024-02-16T09:00:13;5.13;;;3.50;;
10550;SDS011;5324;50.684;3.862;2024-02-16T09:02:40;7.07;;;4.07;;
10550;SDS011;5324;50.684;3.862;2024-02-16T09:05:06;6.87;;;3.97;;
10550;SDS011;5324;50.684;3.862;2024-02-16T09:07:34;6.17;;;4.00;;
10550;SDS011;5324;50.684;3.862;2024-02-16T09:10:00;5.90;;;3.77;;
10550;SDS011;5324;50.684;3.862;2024-02-16T09:12:26;6.47;;;4.27;;
10550;SDS011;5324;50.684;3.862;2024-02-16T09:14:52;5.97;;;3.97;;
10550;SDS011;5324;50.684;3.862;2024-02-16T09:17:19;5.70;;;4.23;;
10550;SDS011;5324;50.684;3.862;2024-02-16T09:19:45;5.80;;;4.33;;
10550;SDS011;5324;50.684;3.862;2024-02-16T09:22:11;5.73;;;3.53;;
10550;SDS011;5324;50.684;3.862;2024-02-16T09:24:37;4.33;;;3.77;;
10550;SDS011;5324;50.684;3.862;2024-02-16T09:27:04;4.23;;;3.40;;
10550;SDS011;5324;50.684;3.862;2024-02-16T09:29:30;7.37;;;4.10;;
10550;SDS011;5324;50.684;3.862;2024-02-16T09:31:57;7.37;;;3.43;;
10550;SDS011;5324;50.684;3.862;2024-02-16T09:34:23;7.53;;;4.03;;
10550;SDS011;5324;50.684;3.862;2024-02-16T09:36:49;7.83;;;4.40;;
10550;SDS011;5324;50.684;3.862;2024-02-16T09:39:15;6.80;;;4.07;;
10550;SDS011;5324;50.684;3.862;2024-02-16T09:41:42;7.40;;;3.87;;
10550;SDS011;5324;50.684;3.862;2024-02-16T09:44:09;4.67;;;3.77;;
10550;SDS011;5324;50.684;3.862;2024-02-16T09:46:35;7.53;;;4.10;;
10550;SDS011;5324;50.684;3.862;2024-02-16T09:49:01;7.33;;;4.27;;
10550;SDS011;5324;50.684;3.862;2024-02-16T09:51:28;7.43;;;4.47;;
10550;SDS011;5324;50.684;3.862;2024-02-16T09:53:54;6.87;;;4.63;;
10550;SDS011;5324;50.684;3.862;2024-02-16T09:56:21;6.57;;;4.30;;
10550;SDS011;5324;50.684;3.862;2024-02-16T09:58:47;4.80;;;4.23;;
10550;SDS011;5324;50.684;3.862;2024-02-16T10:01:19;5.63;;;4.20;;
10550;SDS011;5324;50.684;3.862;2024-02-16T10:03:46;6.70;;;4.30;;
10550;SDS011;5324;50.684;3.862;2024-02-16T10:06:12;8.53;;;4.57;;
10550;SDS011;5324;50.684;3.862;2024-02-16T10:08:47;6.87;;;5.00;;
10550;SDS011;5324;50.684;3.862;2024-02-16T10:11:14;6.07;;;4.40;;
10550;SDS011;5324;50.684;3.862;2024-02-16T10:13:40;8.60;;;5.20;;
10550;SDS011;5324;50.684;3.862;2024-02-16T10:16:07;9.27;;;4.90;;
10550;SDS011;5324;50.684;3.862;2024-02-16T10:18:37;8.87;;;4.80;;
10550;SDS011;5324;50.684;3.862;2024-02-16T10:21:03;7.07;;;5.00;;
10550;SDS011;5324;50.684;3.862;2024-02-16T10:23:29;6.57;;;4.47;;
10550;SDS011;5324;50.684;3.862;2024-02-16T10:25:57;7.03;;;4.70;;
10550;SDS011;5324;50.684;3.862;2024-02-16T10:28:28;9.00;;;5.27;;
10550;SDS011;5324;50.684;3.862;2024-02-16T10:30:59;8.47;;;4.57;;
10550;SDS011;5324;50.684;3.862;2024-02-16T10:33:29;6.43;;;3.90;;
10550;SDS011;5324;50.684;3.862;2024-02-16T10:35:57;7.30;;;4.27;;
10550;SDS011;5324;50.684;3.862;2024-02-16T10:38:24;9.00;;;4.60;;
10550;SDS011;5324;50.684;3.862;2024-02-16T10:40:52;6.43;;;4.50;;
10550;SDS011;5324;50.684;3.862;2024-02-16T10:43:19;6.83;;;4.27;;
10550;SDS011;5324;50.684;3.862;2024-02-16T10:45:47;9.00;;;4.30;;
10550;SDS011;5324;50.684;3.862;2024-02-16T10:48:17;8.40;;;4.43;;
10550;SDS011;5324;50.684;3.862;2024-02-16T10:50:43;9.73;;;4.93;;
10550;SDS011;5324;50.684;3.862;2024-02-16T10:55:48;7.53;;;4.43;;
10550;SDS011;5324;50.684;3.862;2024-02-16T10:58:16;11.90;;;5.87;;
10550;SDS011;5324;50.684;3.862;2024-02-16T11:00:49;9.57;;;5.37;;
10550;SDS011;5324;50.684;3.862;2024-02-16T11:03:16;9.60;;;5.63;;
10550;SDS011;5324;50.684;3.862;2024-02-16T11:05:42;7.53;;;5.20;;
10550;SDS011;5324;50.684;3.862;2024-02-16T11:08:14;8.90;;;5.30;;
10550;SDS011;5324;50.684;3.862;2024-02-16T11:10:41;10.90;;;6.13;;
10550;SDS011;5324;50.684;3.862;2024-02-16T11:13:07;6.40;;;5.17;;
10550;SDS011;5324;50.684;3.862;2024-02-16T11:15:34;9.97;;;6.40;;
10550;SDS011;5324;50.684;3.862;2024-02-16T11:18:01;8.47;;;6.20;;
10550;SDS011;5324;50.684;3.862;2024-02-16T11:20:27;10.07;;;5.67;;
10550;SDS011;5324;50.684;3.862;2024-02-16T11:23:04;11.67;;;6.20;;
10550;SDS011;5324;50.684;3.862;2024-02-16T11:25:31;9.47;;;6.60;;
10550;SDS011;5324;50.684;3.862;2024-02-16T11:27:58;7.57;;;5.40;;
10550;SDS011;5324;50.684;3.862;2024-02-16T11:30:24;8.23;;;5.20;;
10550;SDS011;5324;50.684;3.862;2024-02-16T11:32:53;8.57;;;5.20;;
10550;SDS011;5324;50.684;3.862;2024-02-16T11:35:19;7.43;;;4.73;;
10550;SDS011;5324;50.684;3.862;2024-02-16T11:37:45;5.83;;;4.43;;
10550;SDS011;5324;50.684;3.862;2024-02-16T11:40:12;6.27;;;4.20;;
10550;SDS011;5324;50.684;3.862;2024-02-16T11:42:38;7.17;;;4.90;;
10550;SDS011;5324;50.684;3.862;2024-02-16T11:45:05;6.23;;;4.50;;
10550;SDS011;5324;50.684;3.862;2024-02-16T11:47:31;5.90;;;3.90;;
10550;SDS011;5324;50.684;3.862;2024-02-16T11:50:07;4.67;;;4.20;;
10550;SDS011;5324;50.684;3.862;2024-02-16T11:52:39;4.67;;;4.03;;
10550;SDS011;5324;50.684;3.862;2024-02-16T11:55:09;6.13;;;4.40;;
10550;SDS011;5324;50.684;3.862;2024-02-16T11:57:36;6.37;;;4.10;;
10550;SDS011;5324;50.684;3.862;2024-02-16T12:00:03;5.60;;;5.10;;
10550;SDS011;5324;50.684;3.862;2024-02-16T12:02:34;5.83;;;5.20;;
10550;SDS011;5324;50.684;3.862;2024-02-16T12:05:00;8.43;;;7.00;;
10550;SDS011;5324;50.684;3.862;2024-02-16T12:07:26;9.20;;;7.73;;
10550;SDS011;5324;50.684;3.862;2024-02-16T12:09:56;7.93;;;7.13;;
10550;SDS011;5324;50.684;3.862;2024-02-16T12:12:23;11.80;;;9.17;;
10550;SDS011;5324;50.684;3.862;2024-02-16T12:14:49;12.33;;;10.40;;
10550;SDS011;5324;50.684;3.862;2024-02-16T12:17:15;10.43;;;8.90;;
10550;SDS011;5324;50.684;3.862;2024-02-16T12:19:44;11.60;;;9.47;;
10550;SDS011;5324;50.684;3.862;2024-02-16T12:22:11;11.60;;;9.60;;
10550;SDS011;5324;50.684;3.862;2024-02-16T12:24:41;14.73;;;10.60;;
10550;SDS011;5324;50.684;3.862;2024-02-16T12:27:08;9.13;;;8.20;;
10550;SDS011;5324;50.684;3.862;2024-02-16T12:29:34;9.57;;;8.47;;
10550;SDS011;5324;50.684;3.862;2024-02-16T12:32:00;8.80;;;7.90;;
10550;SDS011;5324;50.684;3.862;2024-02-16T12:34:26;8.77;;;7.97;;
10550;SDS011;5324;50.684;3.862;2024-02-16T12:36:53;9.13;;;8.17;;
10550;SDS011;5324;50.684;3.862;2024-02-16T12:39:19;9.70;;;7.60;;
10550;SDS011;5324;50.684;3.862;2024-02-16T12:41:46;8.07;;;7.23;;
10550;SDS011;5324;50.684;3.862;2024-02-16T12:44:13;9.03;;;7.60;;
10550;SDS011;5324;50.684;3.862;2024-02-16T12:46:39;7.50;;;6.80;;
10550;SDS011;5324;50.684;3.862;2024-02-16T12:49:06;7.47;;;6.70;;
10550;SDS011;5324;50.684;3.862;2024-02-16T12:51:32;6.50;;;5.90;;
10550;SDS011;5324;50.684;3.862;2024-02-16T12:53:58;6.77;;;5.83;;
10550;SDS011;5324;50.684;3.862;2024-02-16T12:56:25;6.63;;;5.93;;
10550;SDS011;5324;50.684;3.862;2024-02-16T12:58:51;7.40;;;6.63;;
10550;SDS011;5324;50.684;3.862;2024-02-16T13:01:17;6.53;;;5.83;;
10550;SDS011;5324;50.684;3.862;2024-02-16T13:03:43;5.90;;;5.10;;
10550;SDS011;5324;50.684;3.862;2024-02-16T13:06:11;6.10;;;5.50;;
10550;SDS011;5324;50.684;3.862;2024-02-16T13:08:37;5.07;;;4.60;;
10550;SDS011;5324;50.684;3.862;2024-02-16T13:11:03;5.40;;;4.90;;
10550;SDS011;5324;50.684;3.862;2024-02-16T13:13:29;5.50;;;4.87;;
10550;SDS011;5324;50.684;3.862;2024-02-16T13:15:55;3.93;;;3.40;;
10550;SDS011;5324;50.684;3.862;2024-02-16T13:18:23;3.70;;;3.40;;
10550;SDS011;5324;50.684;3.862;2024-02-16T13:20:49;3.67;;;3.37;;
10550;SDS011;5324;50.684;3.862;2024-02-16T13:23:15;5.07;;;3.80;;
10550;SDS011;5324;50.684;3.862;2024-02-16T13:25:41;5.03;;;4.20;;
10550;SDS011;5324;50.684;3.862;2024-02-16T13:28:07;13.63;;;7.47;;
10550;SDS011;5324;50.684;3.862;2024-02-16T13:30:33;7.53;;;6.00;;
10550;SDS011;5324;50.684;3.862;2024-02-16T13:32:59;9.38;;;6.97;;
10550;SDS011;5324;50.684;3.862;2024-02-16T13:35:25;8.93;;;5.80;;
10550;SDS011;5324;50.684;3.862;2024-02-16T13:37:51;4.30;;;3.83;;
10550;SDS011;5324;50.684;3.862;2024-02-16T13:40:17;5.20;;;3.67;;
10550;SDS011;5324;50.684;3.862;2024-02-16T13:42:43;3.67;;;3.37;;
10550;SDS011;5324;50.684;3.862;2024-02-16T13:45:10;3.10;;;2.80;;
10550;SDS011;5324;50.684;3.862;2024-02-16T13:47:36;3.83;;;3.40;;
10550;SDS011;5324;50.684;3.862;2024-02-16T13:50:06;3.73;;;3.13;;
10550;SDS011;5324;50.684;3.862;2024-02-16T13:52:32;3.50;;;3.20;;
10550;SDS011;5324;50.684;3.862;2024-02-16T13:55:00;3.73;;;3.00;;
10550;SDS011;5324;50.684;3.862;2024-02-16T13:57:25;4.63;;;3.70;;
10550;SDS011;5324;50.684;3.862;2024-02-16T13:59:51;3.30;;;3.00;;
10550;SDS011;5324;50.684;3.862;2024-02-16T14:02:18;3.43;;;3.10;;
10550;SDS011;5324;50.684;3.862;2024-02-16T14:04:44;3.00;;;2.80;;
10550;SDS011;5324;50.684;3.862;2024-02-16T14:07:11;4.25;;;3.72;;
10550;SDS011;5324;50.684;3.862;2024-02-16T14:09:37;4.70;;;4.00;;
10550;SDS011;5324;50.684;3.862;2024-02-16T14:12:03;3.20;;;2.90;;
10550;SDS011;5324;50.684;3.862;2024-02-16T14:14:29;4.33;;;2.83;;
10550;SDS011;5324;50.684;3.862;2024-02-16T14:16:55;7.80;;;6.43;;
10550;SDS011;5324;50.684;3.862;2024-02-16T14:19:22;4.65;;;4.25;;
10550;SDS011;5324;50.684;3.862;2024-02-16T14:21:48;4.35;;;3.95;;
10550;SDS011;5324;50.684;3.862;2024-02-16T14:24:14;5.57;;;4.25;;
10550;SDS011;5324;50.684;3.862;2024-02-16T14:26:41;4.38;;;3.78;;
10550;SDS011;5324;50.684;3.862;2024-02-16T14:29:07;4.28;;;3.55;;
10550;SDS011;5324;50.684;3.862;2024-02-16T14:31:34;4.07;;;3.37;;
10550;SDS011;5324;50.684;3.862;2024-02-16T14:34:00;3.83;;;3.53;;
10550;SDS011;5324;50.684;3.862;2024-02-16T14:36:26;3.73;;;3.43;;
10550;SDS011;5324;50.684;3.862;2024-02-16T14:38:53;3.60;;;3.30;;
10550;SDS011;5324;50.684;3.862;2024-02-16T14:41:19;3.77;;;3.00;;
10550;SDS011;5324;50.684;3.862;2024-02-16T14:43:46;3.40;;;3.10;;
10550;SDS011;5324;50.684;3.862;2024-02-16T14:46:12;5.65;;;4.93;;
10550;SDS011;5324;50.684;3.862;2024-02-16T14:48:39;4.67;;;3.90;;
10550;SDS011;5324;50.684;3.862;2024-02-16T14:51:05;3.53;;;2.87;;
10550;SDS011;5324;50.684;3.862;2024-02-16T14:53:31;4.00;;;3.60;;
10550;SDS011;5324;50.684;3.862;2024-02-16T14:56:01;4.80;;;4.23;;
10550;SDS011;5324;50.684;3.862;2024-02-16T14:58:30;4.27;;;3.47;;